Sunday, November 23, 2014, 11:41 AM EST

KNHK, Nas Patuxent River Md

Location: Patuxent River, MD, United States Lat: 38.3
Local Time: 11:41 AM EST (16:41 GMT) Lon: -76.4
Time Zone: US/Eastern Elev: 39 ft

Show me the last for .
Show Decoded

2014-11-23 10:52 METAR KNHK 231552Z 21006KT 10SM FEW100 OVC250 11/M02 A3022 RMK AO2 SLP233
                 T01061022 =
2014-11-23 09:52 METAR KNHK 231452Z 20006KT 10SM FEW100 BKN250 09/M03 A3024 RMK AO2 SLP240
                 T00941028 55004 =
2014-11-23 08:52 METAR KNHK 231352Z 20005KT 10SM FEW100 BKN250 08/M04 A3024 RMK AO2 SLP240
                 T00831044 =
2014-11-23 07:52 METAR KNHK 231252Z 00000KT 10SM FEW100 BKN250 07/M06 A3025 RMK AO2 SLP242
                 T00671056 =
2014-11-23 07:10 METAR KNHK 231210Z 22006KT 10SM FEW120 BKN250 06/M07 A3025 RMK AO2 T00611067 =
2014-11-23 06:52 METAR KNHK 231152Z AUTO 22007KT 10SM CLR 07/M07 A3025 RMK AO2 SLP245 T00671072
                 10067 20039 53003 =
2014-11-23 05:52 METAR KNHK 231052Z AUTO 22007KT 10SM CLR 06/M08 A3024 RMK AO2 SLP239 T00611078 =
2014-11-23 04:52 METAR KNHK 230952Z AUTO 19004KT 10SM CLR 06/M08 A3023 RMK AO2 SLP236 T00561078 =
2014-11-23 03:52 METAR KNHK 230852Z AUTO 19005KT 10SM CLR 06/M09 A3025 RMK AO2 SLP242 T00561089
                 58011 =
2014-11-23 02:52 METAR KNHK 230752Z AUTO 22005KT 10SM FEW110 06/M09 A3027 RMK AO2 SLP249
                 T00561094 =
2014-11-23 01:52 METAR KNHK 230652Z AUTO 21005KT 10SM CLR 04/M09 A3027 RMK AO2 SLP250 T00441089 =
2014-11-23 00:52 METAR KNHK 230552Z AUTO 20004KT 10SM FEW120 05/M09 A3028 RMK AO2 SLP253
                 T00501094 10067 20039 56012 =
2014-11-22 23:52 METAR KNHK 230452Z AUTO 21006KT 10SM CLR 06/M09 A3029 RMK AO2 SLP256 T00561094
                 400891072 =
2014-11-22 22:52 METAR KNHK 230352Z AUTO 22007KT 10SM CLR 06/M09 A3030 RMK AO2 SLP260 T00611089 =
2014-11-22 21:52 METAR KNHK 230252Z AUTO 22004KT 10SM CLR 05/M08 A3031 RMK AO2 SLP265 T00501078
                 55005 =
2014-11-22 20:52 METAR KNHK 230152Z AUTO 21003KT 10SM CLR 05/M07 A3031 RMK AO2 SLP264 T00501072 =
2014-11-22 19:52 METAR KNHK 230052Z AUTO VRB05KT 10SM CLR 06/M07 A3031 RMK AO2 SLP265 T00561072 =
2014-11-22 18:52 METAR KNHK 222352Z AUTO 21008KT 10SM CLR 07/M08 A3033 RMK AO2 SLP269 T00671078
                 10089 20061 56013 =
2014-11-22 17:52 METAR KNHK 222252Z 19005KT 10SM SCT250 07/M09 A3033 RMK AO2 SLP271 T00671089 =
2014-11-22 16:52 METAR KNHK 222152Z 18005KT 10SM SCT250 07/M09 A3035 RMK AO2 SLP276 T00671089 =
2014-11-22 15:52 METAR KNHK 222052Z 22006KT 10SM SCT250 08/M10 A3037 RMK AO2 SLP282 T00831100
                 56021 =
2014-11-22 14:52 METAR KNHK 221952Z 24009KT 10SM SCT250 09/M10 A3038 RMK AO2 SLP287 T00891100 =
2014-11-22 13:52 METAR KNHK 221852Z 22009KT 10SM SCT250 08/M10 A3040 RMK AO2 SLP293 T00831100 $ =
2014-11-22 12:52 METAR KNHK 221752Z 21011G16KT 10SM FEW250 07/M09 A3043 RMK AO2 SLP303 T00721094
                 10078 21067 58037 =
2014-11-22 11:52 METAR KNHK 221652Z 21009KT 10SM FEW250 07/M10 A3047 RMK AO2 SLP316 T00671100 =

Support USWX by starting your Amazon purchase here.